Latest Weather Observations for Casterton

IDV60801

Issued at 11:32 pm EST Friday 26 August 2016 (issued every 30 minutes, with the page automatically refreshed every 10 minutes)

About weather observations | Map of weather stations | Latest weather observations for VIC | Other Formats
Station Details ID: 090182 Name: CASTERTON Lat: -37.58 Lon: 141.33 Height: 130.6 m
Data from the previous 72 hours. | See also: Recent months at Casterton
Date/Time
EST
Temp
°C
App
Temp
°C
Dew
Point
°C
Rel
Hum
%
Delta-T
°C
Wind Press
QNH
hPa
Press
MSL
hPa
Rain since
9am
mm
Dir  Spd
km/h
Gust
km/h
Spd
kts
Gust
kts
26/11:30pm 7.7 4.3 7.6 99 0.0 N 15 19 8 10 1022.0 - 0.4
26/11:00pm 7.5 4.8 7.4 99 0.0 NNW 11 13 6 7 1022.3 - 0.4
26/10:30pm 7.7 5.4 7.6 99 0.0 NW 9 11 5 6 1022.4 - 0.4
26/10:00pm 8.3 6.5 7.9 97 0.2 W 7 11 4 6 1022.6 - 0.2
26/09:30pm 8.5 5.8 7.4 93 0.5 WSW 11 15 6 8 1022.6 - 0.2
26/09:00pm 8.6 5.8 7.1 90 0.7 WSW 11 19 6 10 1022.4 1022.6 0.2
26/08:30pm 8.6 6.4 6.4 86 1.0 WNW 7 9 4 5 1022.2 - 0.2
26/08:00pm 8.5 6.4 6.5 87 0.9 WNW 7 9 4 5 1022.0 - 0.2
26/07:30pm 8.5 5.9 6.1 85 1.1 WNW 9 11 5 6 1022.0 - 0.2
26/07:00pm 9.0 5.3 6.3 83 1.3 WNW 15 26 8 14 1021.8 - 0.2
26/06:30pm 8.8 6.4 6.9 88 0.9 WNW 9 11 5 6 1021.6 - 0.0
26/06:00pm 9.7 7.2 8.3 91 0.7 W 11 15 6 8 1021.4 1021.6 0.0
26/05:30pm 10.0 5.8 8.3 89 0.8 NW 20 26 11 14 1021.3 - 0.0
26/05:00pm 11.0 7.4 6.9 76 2.0 WNW 15 24 8 13 1021.0 - 0.0
26/04:30pm 11.6 7.8 7.5 76 2.0 W 17 24 9 13 1020.9 - 0.0
26/04:00pm 12.4 8.8 8.3 76 2.0 W 17 26 9 14 1020.8 - 0.0
26/03:30pm 11.1 7.3 7.6 79 1.7 W 17 20 9 11 1020.8 - 0.0
26/03:00pm 11.3 7.2 6.2 71 2.4 WNW 17 28 9 15 1020.6 1020.8 0.0
26/02:30pm 12.2 8.9 6.5 68 2.7 WNW 13 24 7 13 1020.8 - 0.0
26/02:00pm 11.6 7.2 6.5 71 2.4 W 19 26 10 14 1021.0 - 0.0
26/01:30pm 12.2 7.5 5.1 62 3.3 WNW 19 24 10 13 1021.3 - 0.0
26/01:00pm 11.9 7.0 6.8 71 2.4 NW 22 30 12 16 1021.6 - 0.0
26/12:30pm 11.3 6.2 6.0 70 2.5 WNW 22 32 12 17 1022.1 - 0.0
26/12:00pm 11.2 7.5 6.3 72 2.3 WNW 15 24 8 13 1022.3 1022.5 0.0
26/11:30am 11.0 6.4 6.7 75 2.0 NW 20 30 11 16 1022.7 - 0.0
26/11:00am 11.2 6.7 6.1 71 2.4 WNW 19 24 10 13 1022.8 - 0.0
26/10:30am 10.8 7.4 5.8 71 2.3 NNW 13 17 7 9 1022.9 - 0.0
26/10:00am 9.5 6.1 6.0 79 1.6 NW 13 15 7 8 1023.0 - 0.0
26/09:30am 8.6 6.1 6.7 88 0.9 N 9 13 5 7 1022.8 - 0.0
26/09:00am 7.2 4.9 5.8 91 0.6 N 7 11 4 6 1023.0 1023.2 0.2
26/08:30am 6.5 4.2 5.5 93 0.4 NW 7 11 4 6 1023.1 - 0.2
26/08:00am 6.1 3.7 5.2 94 0.4 WNW 7 9 4 5 1023.0 - 0.2
26/07:30am 5.8 3.6 5.2 96 0.3 WNW 6 9 3 5 1022.5 - 0.2
26/07:00am 5.6 3.1 5.0 96 0.3 NW 7 9 4 5 1022.2 - 0.2
26/06:30am 5.6 2.8 5.0 96 0.3 NW 9 11 5 6 1021.8 - 0.2
26/06:00am 5.3 3.0 5.0 98 0.1 NW 6 7 3 4 1021.7 1021.9 0.2
26/05:30am 4.6 3.0 4.3 98 0.1 W 2 9 1 5 1021.3 - 0.2
26/05:00am 4.4 1.8 4.1 98 0.1 WNW 7 9 4 5 1021.2 - 0.2
26/04:30am 4.7 1.8 4.4 98 0.1 WNW 9 9 5 5 1021.0 - 0.2
26/04:00am 4.3 1.3 4.2 99 0.0 NW 9 11 5 6 1020.8 - 0.2
26/03:30am 3.7 2.3 3.6 99 0.0 CALM 0 0 0 0 1020.7 - 0.2
26/03:00am 3.5 2.1 3.4 99 0.0 CALM 0 0 0 0 1020.7 1020.9 0.2
26/02:30am 3.2 1.7 3.1 99 0.0 CALM 0 0 0 0 1020.8 - 0.2
26/02:00am 2.3 0.7 2.2 99 0.0 CALM 0 0 0 0 1020.9 - 0.2
26/01:30am 1.8 0.1 1.7 99 0.0 CALM 0 0 0 0 1021.1 - 0.2
26/01:00am 2.1 0.4 2.0 99 0.0 CALM 0 0 0 0 1021.1 - 0.2
26/12:30am 2.4 0.8 2.3 99 0.0 CALM 0 0 0 0 1021.0 - 0.2
26/12:00am 2.5 0.9 2.4 99 0.0 CALM 0 0 0 0 1021.0 1021.2 0.2
 
Date/Time
EST
Temp
°C
App
Temp
°C
Dew
Point
°C
Rel
Hum
%
Delta-T
°C
Wind Press
QNH
hPa
Press
MSL
hPa
Rain since
9am
mm
Dir  Spd
km/h
Gust
km/h
Spd
kts
Gust
kts
25/11:30pm 2.6 1.0 2.5 99 0.0 CALM 0 0 0 0 1021.0 - 0.2
25/11:00pm 3.0 1.5 2.9 99 0.0 CALM 0 0 0 0 1021.1 - 0.2
25/10:30pm 3.4 2.0 3.3 99 0.0 CALM 0 0 0 0 1021.1 - 0.2
25/10:00pm 3.6 2.2 3.5 99 0.0 CALM 0 0 0 0 1021.0 - 0.2
25/09:30pm 4.2 2.5 4.1 99 0.0 W 2 6 1 3 1021.0 - 0.2
25/09:00pm 4.4 3.1 4.1 98 0.1 CALM 0 0 0 0 1020.9 1021.1 0.2
25/08:30pm 4.9 2.6 4.6 98 0.1 W 6 7 3 4 1020.6 - 0.2
25/08:00pm 6.4 3.7 5.5 94 0.4 SW 9 11 5 6 1020.4 - 0.2
25/07:30pm 6.7 4.5 6.1 96 0.3 SW 7 11 4 6 1020.0 - 0.2
25/07:00pm 7.3 5.1 6.2 93 0.5 SW 7 9 4 5 1019.8 - 0.2
25/06:30pm 7.4 4.8 5.9 90 0.7 SW 9 11 5 6 1019.5 - 0.2
25/06:00pm 8.3 5.5 6.8 90 0.7 S 11 15 6 8 1019.0 1019.3 0.2
25/05:30pm 9.1 5.9 6.9 86 1.0 S 13 17 7 9 1018.7 - 0.2
25/05:00pm 9.9 6.3 6.6 80 1.6 S 15 24 8 13 1018.4 - 0.2
25/04:30pm 11.0 6.6 7.5 79 1.7 S 20 28 11 15 1018.3 - 0.2
25/04:00pm 10.2 5.9 7.1 81 1.5 S 19 20 10 11 1018.1 - 0.2
25/03:30pm 10.3 5.9 6.6 78 1.7 SSW 19 28 10 15 1017.9 - 0.2
25/03:00pm 11.0 6.9 6.4 73 2.2 SSW 17 24 9 13 1017.9 1018.1 0.2
25/02:30pm 12.1 8.2 7.0 71 2.5 SW 17 30 9 16 1017.7 - 0.2
25/02:00pm 11.8 8.7 7.1 73 2.3 S 13 19 7 10 1017.5 - 0.2
25/01:30pm 10.6 6.5 6.0 73 2.1 S 17 24 9 13 1017.7 - 0.2
25/01:00pm 12.7 9.8 6.3 65 3.1 WSW 11 26 6 14 1017.7 - 0.2
25/12:30pm 11.2 7.2 4.7 64 3.0 SW 15 22 8 12 1017.9 - 0.2
25/12:00pm 11.1 6.7 4.8 65 2.9 SW 17 20 9 11 1017.9 1018.1 0.2
25/11:30am 10.6 6.2 4.9 68 2.6 SSW 17 24 9 13 1018.0 - 0.2
25/11:00am 10.6 6.5 6.0 73 2.1 SSW 17 22 9 12 1018.1 - 0.2
25/10:30am 10.0 5.9 6.3 78 1.7 SSW 17 26 9 14 1018.0 - 0.2
25/10:00am 9.2 6.2 7.6 90 0.8 SSW 13 19 7 10 1017.9 - 0.2
25/09:30am 7.7 5.4 7.4 98 0.1 SW 9 17 5 9 1017.7 - 0.0
25/09:00am 6.8 4.3 6.7 99 0.0 W 9 11 5 6 1017.6 1017.8 1.6
25/08:30am 5.7 3.0 5.6 99 0.0 W 9 11 5 6 1017.5 - 1.6
25/08:00am 4.2 2.9 4.1 99 0.0 CALM 0 6 0 3 1017.0 - 1.6
25/07:30am 3.4 0.6 3.3 99 0.0 WNW 7 9 4 5 1016.6 - 1.6
25/07:00am 3.4 0.8 3.3 99 0.0 WNW 6 9 3 5 1016.4 - 1.6
25/06:30am 3.3 0.1 3.2 99 0.0 WNW 9 11 5 6 1016.1 - 1.6
25/06:00am 3.2 0.4 3.1 99 0.0 NW 7 7 4 4 1015.8 1016.0 1.6
25/05:30am 4.1 1.5 4.0 99 0.0 WNW 7 9 4 5 1015.5 - 1.6
25/05:00am 4.7 1.8 4.6 99 0.0 W 9 13 5 7 1015.3 - 1.6
25/04:30am 5.5 2.4 5.4 99 0.0 W 11 17 6 9 1015.1 - 1.6
25/04:00am 5.7 2.6 5.6 99 0.0 W 11 15 6 8 1015.1 - 1.6
25/03:30am 5.5 2.8 5.4 99 0.0 W 9 11 5 6 1015.5 - 1.0
25/03:00am 5.3 2.5 5.2 99 0.0 WNW 9 11 5 6 1015.4 1015.6 0.6
25/02:30am 5.4 2.6 5.3 99 0.0 W 9 13 5 7 1015.6 - 0.4
25/02:00am 5.6 3.3 5.5 99 0.0 WSW 7 9 4 5 1015.7 - 0.2
25/01:30am 5.1 2.6 5.0 99 0.0 W 7 11 4 6 1015.8 - 0.0
25/01:00am 3.6 0.9 3.5 99 0.0 W 7 9 4 5 1015.7 - 0.0
25/12:30am 2.5 -0.4 2.4 99 0.0 WNW 7 9 4 5 1015.8 - 0.0
25/12:00am 3.1 0.3 3.0 99 0.0 W 7 9 4 5 1016.0 1016.2 0.0
 
Date/Time
EST
Temp
°C
App
Temp
°C
Dew
Point
°C
Rel
Hum
%
Delta-T
°C
Wind Press
QNH
hPa
Press
MSL
hPa
Rain since
9am
mm
Dir  Spd
km/h
Gust
km/h
Spd
kts
Gust
kts
24/11:30pm 4.4 1.8 4.3 99 0.0 WSW 7 7 4 4 1016.1 - 0.0
24/11:00pm 3.6 1.1 3.5 99 0.0 W 6 7 3 4 1016.2 - 0.0
24/10:30pm 2.7 -0.2 2.4 98 0.1 W 7 9 4 5 1016.3 - 0.0
24/10:00pm 3.1 0.4 2.8 98 0.1 WSW 6 6 3 3 1016.4 - 0.0
24/09:30pm 4.2 1.5 3.8 97 0.2 SW 7 9 4 5 1016.5 - 0.0
24/09:00pm 4.9 1.9 4.0 94 0.4 SSW 9 11 5 6 1016.3 1016.5 0.0
24/08:30pm 5.0 1.9 3.5 90 0.6 SSW 9 11 5 6 1016.3 - 0.0
24/08:00pm 6.4 3.0 4.2 86 0.9 SSW 11 15 6 8 1016.3 - 0.0
24/07:30pm 6.5 3.1 4.0 84 1.1 S 11 15 6 8 1016.2 - 0.0
24/07:00pm 7.1 4.1 3.9 80 1.4 S 9 11 5 6 1015.9 - 0.0
24/06:30pm 8.1 4.7 4.1 76 1.8 SSW 11 17 6 9 1015.6 - 0.0
24/06:00pm 9.0 5.0 4.8 75 1.9 SSW 15 22 8 12 1015.4 1015.6 0.0
24/05:30pm 9.1 5.6 5.5 78 1.6 SSW 13 17 7 9 1015.3 - 0.0
24/05:00pm 9.7 6.2 5.3 74 2.0 SSW 13 17 7 9 1015.0 - 0.0
24/04:30pm 9.9 6.5 5.9 76 1.9 SW 13 17 7 9 1014.9 - 0.0
24/04:00pm 10.0 4.8 5.4 73 2.1 S 22 30 12 16 1014.9 - 0.0
24/03:30pm 11.3 8.2 5.6 68 2.7 SSW 11 19 6 10 1014.8 - 0.0
24/03:00pm 10.5 6.9 5.1 69 2.5 SSW 13 22 7 12 1014.8 1015.0 0.0
24/02:30pm 11.9 9.0 6.6 70 2.5 S 11 19 6 10 1014.7 - 0.0
24/02:00pm 9.7 6.0 6.2 79 1.6 S 15 22 8 12 1015.1 - 0.0
24/01:30pm 10.7 7.1 4.8 67 2.7 SSW 13 20 7 11 1015.2 - 0.0
24/01:00pm 10.6 7.5 5.4 70 2.4 S 11 15 6 8 1015.5 - 0.0
24/12:30pm 10.2 6.6 4.8 69 2.4 S 13 19 7 10 1015.7 - 0.0
24/12:00pm 9.9 6.6 4.3 68 2.5 S 11 17 6 9 1016.2 1016.4 0.0
24/11:30am 10.2 7.2 3.9 65 2.8 SE 9 15 5 8 1016.4 - 0.0
24/11:00am 10.3 8.0 5.9 74 2.0 E 7 11 4 6 1016.5 - 0.0
24/10:30am 9.2 7.5 5.9 80 1.5 E 4 7 2 4 1016.8 - 0.0
24/10:00am 8.1 6.0 6.7 91 0.7 E 7 11 4 6 1017.0 - 0.0
24/09:30am 6.3 5.3 5.7 96 0.3 CALM 0 0 0 0 1017.2 - 0.0
24/09:00am 4.4 3.1 4.3 99 0.0 CALM 0 0 0 0 1017.3 1017.5 0.0
24/08:30am 1.7 0.0 1.6 99 0.0 CALM 0 0 0 0 1017.3 - 0.0
24/08:00am 0.8 -1.1 0.7 99 0.0 CALM 0 0 0 0 1017.0 - 0.0
24/07:30am 0.5 -1.5 0.2 98 0.1 CALM 0 0 0 0 1016.9 - 0.0
24/07:00am -0.1 -2.1 -0.4 98 0.1 CALM 0 0 0 0 1016.8 - 0.0
24/06:30am 0.4 -2.7 0.1 98 0.1 NE 6 7 3 4 1016.6 - 0.0
24/06:00am 0.6 -1.3 0.3 98 0.1 CALM 0 0 0 0 1016.4 1016.6 0.0
24/05:30am 1.3 -1.9 1.0 98 0.1 S 7 9 4 5 1016.2 - 0.0
24/05:00am 1.2 -0.6 0.9 98 0.1 CALM 0 0 0 0 1016.4 - 0.0
24/04:30am 1.8 0.0 1.5 98 0.1 CALM 0 0 0 0 1016.4 - 0.0
24/04:00am 2.2 0.5 1.9 98 0.1 CALM 0 0 0 0 1016.5 - 0.0
24/03:30am 1.6 -0.2 1.3 98 0.1 CALM 0 0 0 0 1016.6 - 0.0
24/03:00am 1.6 -0.2 1.3 98 0.1 CALM 0 0 0 0 1016.8 1017.0 0.0
24/02:30am 2.2 0.5 1.6 96 0.2 CALM 0 0 0 0 1017.0 - 0.0
24/02:00am 2.5 0.8 2.1 97 0.2 CALM 0 0 0 0 1017.1 - 0.0
24/01:30am 1.4 -2.2 0.7 95 0.3 ENE 9 11 5 6 1017.2 - 0.0
24/01:00am 3.3 1.3 2.4 94 0.4 ESE 2 7 1 4 1017.0 - 0.0
24/12:30am 2.6 -0.3 1.6 93 0.4 SE 6 7 3 4 1017.1 - 0.0
24/12:00am 3.3 0.6 2.4 94 0.4 ESE 6 9 3 5 1017.3 1017.5 0.0

Other Formats:

Comma delimited format used in spreadsheet applications
http://www.bom.gov.au/fwo/IDV60801/IDV60801.95825.axf

JavaScript Object Notation format (JSON) in row-major order
http://www.bom.gov.au/fwo/IDV60801/IDV60801.95825.json